createdAt,value
2018-06-02T00:01:19.779Z,77.69
2018-06-02T00:03:48.657Z,77.78
2018-06-02T00:06:17.566Z,77.94
2018-06-02T00:08:46.484Z,78.32
2018-06-02T00:11:15.383Z,78.04
2018-06-02T00:13:44.125Z,78.39
2018-06-02T00:16:12.990Z,78.48
2018-06-02T00:18:41.861Z,78.34
2018-06-02T00:21:10.760Z,78.33
2018-06-02T00:23:39.589Z,78.25
2018-06-02T00:26:08.466Z,78.38
2018-06-02T00:28:37.339Z,78.45
2018-06-02T00:31:06.178Z,78.66
2018-06-02T00:33:35.105Z,78.85
2018-06-02T00:36:03.947Z,78.73
2018-06-02T00:38:34.091Z,78.97
2018-06-02T00:41:02.928Z,78.90
2018-06-02T00:43:31.858Z,79.01
2018-06-02T00:46:00.696Z,79.19
2018-06-02T00:48:29.571Z,79.43
2018-06-02T00:50:58.477Z,79.43
2018-06-02T00:53:27.331Z,79.41
2018-06-02T00:55:56.184Z,79.39
2018-06-02T00:58:25.158Z,79.62
2018-06-02T01:00:54.059Z,79.81
2018-06-02T01:03:22.943Z,79.97
2018-06-02T01:05:51.836Z,80.25
2018-06-02T01:08:20.713Z,80.13
2018-06-02T01:10:49.566Z,80.11
2018-06-02T01:13:18.472Z,80.07
2018-06-02T01:15:47.304Z,80.12
2018-06-02T01:18:16.204Z,80.05
2018-06-02T01:20:45.068Z,80.50
2018-06-02T01:23:13.971Z,80.68
2018-06-02T01:25:42.860Z,80.89
2018-06-02T01:28:11.780Z,80.79
2018-06-02T01:30:40.638Z,81.01
2018-06-02T01:33:09.561Z,80.58
2018-06-02T01:35:38.442Z,80.89
2018-06-02T01:38:07.304Z,80.95
2018-06-02T01:40:36.203Z,81.06
2018-06-02T01:43:05.068Z,81.29
2018-06-02T01:45:33.911Z,80.34
2018-06-02T01:48:02.775Z,81.12
2018-06-02T01:50:31.639Z,81.02
2018-06-02T01:53:00.527Z,81.57
2018-06-02T01:55:29.404Z,81.61
2018-06-02T01:57:58.252Z,81.59
2018-06-02T02:00:27.118Z,81.46
2018-06-02T02:02:55.991Z,81.63
2018-06-02T02:05:24.875Z,79.87
2018-06-02T02:07:53.704Z,81.18
2018-06-02T02:10:22.578Z,82.08
2018-06-02T02:12:51.449Z,82.26
2018-06-02T02:15:20.288Z,82.13
2018-06-02T02:17:49.147Z,82.94
2018-06-02T02:20:18.017Z,82.50
2018-06-02T02:22:46.868Z,82.42
2018-06-02T02:25:15.750Z,82.43
2018-06-02T02:27:44.595Z,82.54
2018-06-02T02:30:16.448Z,82.61
2018-06-02T02:32:45.293Z,82.64
2018-06-02T02:35:14.171Z,82.64
2018-06-02T02:37:43.015Z,82.33
2018-06-02T02:40:11.899Z,82.84
2018-06-02T02:42:40.756Z,82.92
2018-06-02T02:45:09.616Z,82.95
2018-06-02T02:47:38.538Z,82.92
2018-06-02T02:50:07.387Z,81.34
2018-06-02T02:52:36.265Z,82.28
2018-06-02T02:55:05.169Z,82.25
2018-06-02T02:57:34.026Z,82.20
2018-06-02T03:00:02.872Z,82.07
2018-06-02T03:02:31.720Z,82.52
2018-06-02T03:05:00.565Z,82.42
2018-06-02T03:07:29.435Z,82.65
2018-06-02T03:09:58.339Z,82.78
2018-06-02T03:12:27.234Z,82.79
2018-06-02T03:14:56.106Z,83.00
2018-06-02T03:17:24.976Z,82.45
2018-06-02T03:19:53.848Z,82.84
2018-06-02T03:22:22.689Z,82.66
2018-06-02T03:24:51.549Z,82.56
2018-06-02T03:27:20.381Z,82.53
2018-06-02T03:29:49.234Z,82.70
2018-06-02T03:32:18.076Z,81.06
2018-06-02T03:34:46.931Z,82.20
2018-06-02T03:37:15.828Z,82.20
2018-06-02T03:39:44.711Z,82.18
2018-06-02T03:42:13.536Z,82.45
2018-06-02T03:44:42.408Z,82.32
2018-06-02T03:47:11.229Z,82.31
2018-06-02T03:49:40.075Z,82.86
2018-06-02T03:52:08.974Z,82.80
2018-06-02T03:54:37.828Z,83.25
2018-06-02T03:57:06.686Z,83.16
2018-06-02T03:59:35.736Z,83.56
2018-06-02T04:02:04.608Z,83.34
2018-06-02T04:04:33.507Z,83.38
2018-06-02T04:07:02.393Z,83.48
2018-06-02T04:09:31.253Z,83.21
2018-06-02T04:12:00.157Z,81.56
2018-06-02T04:14:29.020Z,82.79
2018-06-02T04:16:57.886Z,82.80
2018-06-02T04:19:26.763Z,82.82
2018-06-02T04:21:55.618Z,82.62
2018-06-02T04:24:24.467Z,82.65
2018-06-02T04:26:53.337Z,82.69
2018-06-02T04:29:22.178Z,82.77
2018-06-02T04:31:51.019Z,82.54
2018-06-02T04:34:19.865Z,82.88
2018-06-02T04:36:48.702Z,82.86
2018-06-02T04:39:17.581Z,83.47
2018-06-02T04:41:46.426Z,83.30
2018-06-02T04:44:15.288Z,83.16
2018-06-02T04:46:44.113Z,82.92
2018-06-02T04:49:12.967Z,83.27
2018-06-02T04:51:41.799Z,83.15
2018-06-02T04:54:10.664Z,83.37
2018-06-02T04:56:39.506Z,83.64
2018-06-02T04:59:08.396Z,83.11
2018-06-02T05:01:37.242Z,83.36
2018-06-02T05:04:06.104Z,81.81
2018-06-02T05:06:34.972Z,82.82
2018-06-02T05:09:04.322Z,82.79
2018-06-02T05:11:33.175Z,82.84
2018-06-02T05:14:02.047Z,83.47
2018-06-02T05:16:30.970Z,83.85
2018-06-02T05:18:59.828Z,81.77
2018-06-02T05:21:28.648Z,83.08
2018-06-02T05:23:57.544Z,83.22
2018-06-02T05:26:26.395Z,83.54
2018-06-02T05:28:55.247Z,83.69
2018-06-02T05:31:24.102Z,81.83
2018-06-02T05:33:52.983Z,82.98
2018-06-02T05:36:21.878Z,82.76
2018-06-02T05:38:50.747Z,83.07
2018-06-02T05:41:19.608Z,83.32
2018-06-02T05:43:48.444Z,83.12
2018-06-02T05:46:17.329Z,83.28
2018-06-02T05:48:46.189Z,83.32
2018-06-02T05:51:15.016Z,83.37
2018-06-02T05:53:43.911Z,83.40
2018-06-02T05:56:12.769Z,83.72
2018-06-02T05:58:41.615Z,83.82
2018-06-02T06:01:10.451Z,82.29
2018-06-02T06:03:39.375Z,83.38
2018-06-02T06:06:08.171Z,83.27
2018-06-02T06:08:37.033Z,83.41
2018-06-02T06:11:05.911Z,83.38
2018-06-02T06:13:34.736Z,83.66
2018-06-02T06:16:03.613Z,81.78
2018-06-02T06:18:32.499Z,82.49
2018-06-02T06:21:01.501Z,82.55
2018-06-02T06:23:30.379Z,82.39
2018-06-02T06:25:59.245Z,82.78
2018-06-02T06:28:28.089Z,81.42
2018-06-02T06:30:56.982Z,82.66
2018-06-02T06:33:25.816Z,83.09
2018-06-02T06:35:54.718Z,83.13
2018-06-02T06:38:23.569Z,83.47
2018-06-02T06:40:52.722Z,83.21
2018-06-02T06:43:21.551Z,83.15
2018-06-02T06:45:50.411Z,81.27
2018-06-02T06:48:19.284Z,82.58
2018-06-02T06:50:48.107Z,82.04
2018-06-02T06:53:16.963Z,80.94
2018-06-02T06:55:45.820Z,81.75
2018-06-02T06:58:14.840Z,79.92
2018-06-02T07:00:43.720Z,81.29
2018-06-02T07:03:12.606Z,81.48
2018-06-02T07:05:41.436Z,81.50
2018-06-02T07:08:10.306Z,81.69
2018-06-02T07:10:39.178Z,81.81
2018-06-02T07:13:08.010Z,81.63
2018-06-02T07:15:36.934Z,81.86
2018-06-02T07:19:06.024Z,81.83
2018-06-02T07:21:36.195Z,81.62
2018-06-02T07:24:05.091Z,81.23
2018-06-02T07:26:33.956Z,81.37
2018-06-02T07:29:02.795Z,81.05
2018-06-02T07:31:31.738Z,81.14
2018-06-02T07:34:00.597Z,80.93
2018-06-02T07:36:29.446Z,81.15
2018-06-02T07:38:58.318Z,80.82
2018-06-02T07:41:27.176Z,78.42
2018-06-02T07:43:56.011Z,79.70
2018-06-02T07:46:24.853Z,79.71
2018-06-02T07:48:53.678Z,77.49
2018-06-02T07:51:22.552Z,78.87
2018-06-02T07:53:51.383Z,78.91
2018-06-02T07:56:20.264Z,79.26
2018-06-02T07:58:49.103Z,77.78
2018-06-02T08:01:17.935Z,76.81
2018-06-02T08:03:46.800Z,77.89
2018-06-02T08:06:15.639Z,78.39
2018-06-02T08:08:44.537Z,78.47
2018-06-02T08:11:13.331Z,79.28
2018-06-02T08:13:42.170Z,79.20
2018-06-02T08:16:11.051Z,79.48
2018-06-02T08:18:39.886Z,79.55
2018-06-02T08:21:08.744Z,79.37
2018-06-02T08:23:37.627Z,79.15
2018-06-02T08:26:06.471Z,79.19
2018-06-02T08:28:35.312Z,79.58
2018-06-02T08:31:04.175Z,80.44
2018-06-02T08:33:33.054Z,80.29
2018-06-02T08:36:01.899Z,81.39
2018-06-02T08:38:30.719Z,81.43
2018-06-02T08:40:59.587Z,81.59
2018-06-02T08:43:28.458Z,82.16
2018-06-02T08:45:57.466Z,82.31
2018-06-02T08:48:26.377Z,82.71
2018-06-02T08:50:55.203Z,81.82
2018-06-02T08:53:24.066Z,82.35
2018-06-02T08:55:52.924Z,82.13
2018-06-02T08:58:21.764Z,81.78
2018-06-02T09:00:50.616Z,79.13
2018-06-02T09:03:19.465Z,80.45
2018-06-02T09:05:48.331Z,80.93
2018-06-02T09:08:17.175Z,80.63
2018-06-02T09:10:46.033Z,80.30
2018-06-02T09:13:14.878Z,80.60
2018-06-02T09:15:43.705Z,80.49
2018-06-02T09:18:12.567Z,79.81
2018-06-02T09:20:41.408Z,79.84
2018-06-02T09:23:10.330Z,80.14
2018-06-02T09:25:39.151Z,77.89
2018-06-02T09:28:09.415Z,78.90
2018-06-02T09:30:38.301Z,78.21
2018-06-02T09:33:07.192Z,78.22
2018-06-02T09:35:36.083Z,78.17
2018-06-02T09:38:05.120Z,77.99
2018-06-02T09:40:34.045Z,77.99
2018-06-02T09:43:02.949Z,77.62
2018-06-02T09:45:31.798Z,77.46
2018-06-02T09:48:00.717Z,77.09
2018-06-02T09:50:29.684Z,77.06
2018-06-02T09:52:58.547Z,77.12
2018-06-02T09:55:27.400Z,76.80
2018-06-02T09:57:56.304Z,74.74
2018-06-02T10:00:25.697Z,75.39
2018-06-02T10:02:54.426Z,75.54
2018-06-02T10:05:23.284Z,75.67
2018-06-02T10:07:52.139Z,76.20
2018-06-02T10:10:21.032Z,75.22
2018-06-02T10:12:49.882Z,75.23
2018-06-02T10:15:18.718Z,74.69
2018-06-02T10:17:47.567Z,74.03
2018-06-02T10:20:16.415Z,74.77
2018-06-02T10:22:45.277Z,74.31
2018-06-02T10:25:14.122Z,74.74
2018-06-02T10:27:42.984Z,74.51
2018-06-02T10:30:11.830Z,75.25
2018-06-02T10:32:40.833Z,75.55
2018-06-02T10:35:09.708Z,75.35
2018-06-02T10:37:38.544Z,74.90
2018-06-02T10:40:07.406Z,74.69
2018-06-02T10:42:36.276Z,74.30
2018-06-02T10:45:05.137Z,74.61
2018-06-02T10:47:33.981Z,74.53
2018-06-02T10:50:03.213Z,73.60
2018-06-02T10:52:32.177Z,73.14
2018-06-02T10:55:01.270Z,72.57
2018-06-02T10:57:30.320Z,72.87
2018-06-02T10:59:59.307Z,72.89
2018-06-02T11:02:28.647Z,72.06
2018-06-02T11:04:57.639Z,70.12
2018-06-02T11:07:26.929Z,71.24
2018-06-02T11:09:56.019Z,69.46
2018-06-02T11:12:25.241Z,70.01
2018-06-02T11:14:54.533Z,71.14
2018-06-02T11:17:27.882Z,71.52
2018-06-02T11:19:55.114Z,70.93
2018-06-02T11:22:24.207Z,68.66
2018-06-02T11:24:53.311Z,69.40
2018-06-02T11:27:22.494Z,69.38
2018-06-02T11:29:52.371Z,69.76
2018-06-02T11:32:21.475Z,68.51
2018-06-02T11:34:50.534Z,69.09
2018-06-02T11:37:19.614Z,69.06
2018-06-02T11:39:48.760Z,68.05
2018-06-02T11:42:17.907Z,69.10
2018-06-02T11:44:47.018Z,68.96
2018-06-02T11:47:16.098Z,69.21
2018-06-02T11:49:45.193Z,69.05
2018-06-02T11:52:14.394Z,68.55
2018-06-02T11:54:43.938Z,69.07
2018-06-02T11:57:13.353Z,68.57
2018-06-02T11:59:46.352Z,67.93
2018-06-02T12:02:15.322Z,67.94
2018-06-02T12:04:44.463Z,68.50
2018-06-02T12:07:13.484Z,67.74
2018-06-02T12:09:44.584Z,67.80
2018-06-02T12:12:14.253Z,67.90
2018-06-02T12:14:43.710Z,68.06
2018-06-02T12:17:12.764Z,69.10
2018-06-02T12:19:44.162Z,68.92
2018-06-02T12:22:13.393Z,68.50
2018-06-02T12:24:42.744Z,67.09
2018-06-02T12:27:11.918Z,65.68
2018-06-02T12:29:40.953Z,66.86
2018-06-02T12:32:10.167Z,67.24
2018-06-02T12:34:39.321Z,68.14
2018-06-02T12:37:08.320Z,67.78
2018-06-02T12:39:37.411Z,68.26
2018-06-02T12:42:06.483Z,68.25
2018-06-02T12:44:35.574Z,68.07
2018-06-02T12:47:04.699Z,68.68
2018-06-02T12:49:34.000Z,68.66
2018-06-02T12:52:03.482Z,67.60
2018-06-02T12:54:32.761Z,67.07
2018-06-02T12:57:01.697Z,64.60
2018-06-02T12:59:30.742Z,65.80
2018-06-02T13:01:59.759Z,65.74
2018-06-02T13:04:28.811Z,65.07
2018-06-02T13:06:57.838Z,65.79
2018-06-02T13:09:26.848Z,66.01
2018-06-02T13:11:55.830Z,66.57
2018-06-02T13:14:24.950Z,65.36
2018-06-02T13:16:54.075Z,62.90
2018-06-02T13:19:23.345Z,64.67
2018-06-02T13:21:53.299Z,65.62
2018-06-02T13:24:22.352Z,65.83
2018-06-02T13:26:54.201Z,65.11
2018-06-02T13:29:23.280Z,63.40
2018-06-02T13:31:52.351Z,62.69
2018-06-02T13:34:21.432Z,64.59
2018-06-02T13:36:50.505Z,64.67
2018-06-02T13:39:19.464Z,65.58
2018-06-02T13:41:48.668Z,65.47
2018-06-02T13:44:17.697Z,65.05
2018-06-02T13:46:46.746Z,65.80
2018-06-02T13:49:16.147Z,66.09
2018-06-02T13:51:45.032Z,65.59
2018-06-02T13:54:14.120Z,65.42
2018-06-02T13:56:45.614Z,65.97
2018-06-02T13:59:14.746Z,65.06
2018-06-02T14:01:45.668Z,65.29
2018-06-02T14:04:14.631Z,65.55
2018-06-02T14:06:43.810Z,65.54
2018-06-02T14:09:12.962Z,65.54
2018-06-02T14:11:41.966Z,66.01
2018-06-02T14:14:11.027Z,65.44
2018-06-02T14:16:40.119Z,64.60
2018-06-02T14:19:09.304Z,62.87
2018-06-02T14:21:41.165Z,62.29
2018-06-02T14:24:10.396Z,63.88
2018-06-02T14:26:39.454Z,63.17
2018-06-02T14:29:08.632Z,63.47
2018-06-02T14:31:37.655Z,64.10
2018-06-02T14:34:11.509Z,64.30
2018-06-02T14:36:40.816Z,64.19
2018-06-02T14:39:09.855Z,64.48
2018-06-02T14:41:39.069Z,64.97
2018-06-02T14:44:08.370Z,63.75
2018-06-02T14:46:37.391Z,65.44
2018-06-02T14:49:06.523Z,64.83
2018-06-02T14:51:35.698Z,64.98
2018-06-02T14:54:04.700Z,65.58
2018-06-02T14:56:33.615Z,65.50
2018-06-02T14:59:02.684Z,66.19
2018-06-02T15:01:32.092Z,64.64
2018-06-02T15:04:01.193Z,63.72
2018-06-02T15:06:32.416Z,63.88
2018-06-02T15:09:03.340Z,63.32
2018-06-02T15:11:34.952Z,63.85
2018-06-02T15:14:06.176Z,63.63
2018-06-02T15:16:35.202Z,64.83
2018-06-02T15:19:04.401Z,65.34
2018-06-02T15:21:33.508Z,64.72
2018-06-02T15:24:05.422Z,64.66
2018-06-02T15:26:34.274Z,64.66
2018-06-02T15:29:03.416Z,64.84
2018-06-02T15:31:34.801Z,65.15
2018-06-02T15:34:03.921Z,65.18
2018-06-02T15:36:33.004Z,65.34
2018-06-02T15:39:02.112Z,64.97
2018-06-02T15:41:31.301Z,64.58
2018-06-02T15:44:00.414Z,63.70
2018-06-02T15:46:29.464Z,64.13
2018-06-02T15:49:01.189Z,63.61
2018-06-02T15:51:30.287Z,61.21
2018-06-02T15:53:59.220Z,62.60
2018-06-02T15:56:28.346Z,63.13
2018-06-02T15:58:57.567Z,63.29
2018-06-02T16:01:26.671Z,61.86
2018-06-02T16:03:55.658Z,62.19
2018-06-02T16:06:24.954Z,62.03
2018-06-02T16:08:54.008Z,62.36
2018-06-02T16:11:23.234Z,61.85
2018-06-02T16:13:52.440Z,62.38
2018-06-02T16:16:21.581Z,60.69
2018-06-02T16:18:50.615Z,61.83
2018-06-02T16:21:19.739Z,61.61
2018-06-02T16:23:48.786Z,62.03
2018-06-02T16:26:17.735Z,62.09
2018-06-02T16:28:46.908Z,63.03
2018-06-02T16:31:16.039Z,63.15
2018-06-02T16:33:48.104Z,63.24
2018-06-02T16:36:16.983Z,63.37
2018-06-02T16:38:45.918Z,63.32
2018-06-02T16:41:15.009Z,64.18
2018-06-02T16:43:46.982Z,63.72
2018-06-02T16:46:16.083Z,64.40
2018-06-02T16:48:45.373Z,63.99
2018-06-02T16:51:14.582Z,64.22
2018-06-02T16:53:43.677Z,63.70
2018-06-02T16:56:12.789Z,64.21
2018-06-02T16:58:41.765Z,63.81
2018-06-02T17:01:10.862Z,63.94
2018-06-02T17:03:40.077Z,64.28
2018-06-02T17:06:09.248Z,64.38
2018-06-02T17:08:38.292Z,64.04
2018-06-02T17:11:07.537Z,63.95
2018-06-02T17:13:36.763Z,64.11
2018-06-02T17:16:08.586Z,64.13
2018-06-02T17:18:37.559Z,64.32
2018-06-02T17:21:06.648Z,64.18
2018-06-02T17:23:38.462Z,64.14
2018-06-02T17:26:07.359Z,64.13
2018-06-02T17:28:36.437Z,64.33
2018-06-02T17:31:05.569Z,64.81
2018-06-02T17:33:34.552Z,64.49
2018-06-02T17:36:03.640Z,64.55
2018-06-02T17:38:32.816Z,64.58
2018-06-02T17:41:01.892Z,64.96
2018-06-02T17:43:31.438Z,64.70
2018-06-02T17:46:03.244Z,64.23
2018-06-02T17:48:32.379Z,65.02
2018-06-02T17:51:01.523Z,64.76
2018-06-02T17:53:30.473Z,64.88
2018-06-02T17:55:59.573Z,64.62
2018-06-02T17:58:28.911Z,64.75
2018-06-02T18:00:57.980Z,64.97
2018-06-02T18:03:27.395Z,65.41
2018-06-02T18:05:56.534Z,65.47
2018-06-02T18:08:27.793Z,64.49
2018-06-02T18:10:57.299Z,65.87
2018-06-02T18:13:26.295Z,66.06
2018-06-02T18:15:57.871Z,66.26
2018-06-02T18:18:27.021Z,66.41
2018-06-02T18:20:56.063Z,66.52
2018-06-02T18:23:25.425Z,66.54
2018-06-02T18:25:54.531Z,66.98
2018-06-02T18:28:23.783Z,65.69
2018-06-02T18:30:52.945Z,67.00
2018-06-02T18:33:22.032Z,67.03
2018-06-02T18:35:50.909Z,67.18
2018-06-02T18:38:19.910Z,67.60
2018-06-02T18:40:51.066Z,67.39
2018-06-02T18:43:20.125Z,67.34
2018-06-02T18:45:49.294Z,67.66
2018-06-02T18:48:18.693Z,67.76
2018-06-02T18:50:47.771Z,68.36
2018-06-02T18:53:16.894Z,68.23
2018-06-02T18:55:45.944Z,69.44
2018-06-02T18:58:15.037Z,69.01
2018-06-02T19:00:46.606Z,69.47
2018-06-02T19:03:15.805Z,70.02
2018-06-02T19:05:45.448Z,70.30
2018-06-02T19:08:14.744Z,70.30
2018-06-02T19:10:44.109Z,70.58
2018-06-02T19:13:15.860Z,70.43
2018-06-02T19:15:44.897Z,71.03
2018-06-02T19:18:14.019Z,71.07
2018-06-02T19:20:43.825Z,71.13
2018-06-02T19:23:17.672Z,71.17
2018-06-02T19:25:47.305Z,70.13
2018-06-02T19:28:16.547Z,70.84
2018-06-02T19:30:45.642Z,70.66
2018-06-02T19:33:18.219Z,71.54
2018-06-02T19:35:47.206Z,71.58
2018-06-02T19:38:16.029Z,71.52
2018-06-02T19:40:44.905Z,71.68
2018-06-02T19:43:13.810Z,71.94
2018-06-02T19:45:42.658Z,72.30
2018-06-02T19:48:11.547Z,72.59
2018-06-02T19:50:40.353Z,72.56
2018-06-02T19:53:09.192Z,72.53
2018-06-02T19:55:38.061Z,72.55
2018-06-02T19:58:06.936Z,72.53
2018-06-02T20:00:35.821Z,72.81
2018-06-02T20:03:20.328Z,72.95
2018-06-02T20:05:49.170Z,73.33
2018-06-02T20:08:17.998Z,73.01
2018-06-02T20:10:46.837Z,72.83
2018-06-02T20:13:15.680Z,73.38
2018-06-02T20:15:44.521Z,73.54
2018-06-02T20:18:13.330Z,73.58
2018-06-02T20:20:42.196Z,73.25
2018-06-02T20:23:11.014Z,73.64
2018-06-02T20:25:39.876Z,73.42
2018-06-02T20:28:08.726Z,73.67
2018-06-02T20:30:37.550Z,73.96
2018-06-02T20:33:06.402Z,73.99
2018-06-02T20:35:35.253Z,74.21
2018-06-02T20:38:04.123Z,74.77
2018-06-02T20:40:32.979Z,75.01
2018-06-02T20:43:01.806Z,75.11
2018-06-02T20:45:30.660Z,74.56
2018-06-02T20:47:59.527Z,75.47
2018-06-02T20:50:28.371Z,75.59
2018-06-02T20:52:57.245Z,75.55
2018-06-02T20:55:26.135Z,75.52
2018-06-02T20:57:54.981Z,75.40
2018-06-02T21:00:23.836Z,75.30
2018-06-02T21:02:52.695Z,75.34
2018-06-02T21:05:21.605Z,75.32
2018-06-02T21:07:50.401Z,75.49
2018-06-02T21:10:19.257Z,75.66
2018-06-02T21:12:48.070Z,75.55
2018-06-02T21:15:16.909Z,75.86
2018-06-02T21:17:45.739Z,75.90
2018-06-02T21:20:14.574Z,76.04
2018-06-02T21:22:43.439Z,76.08
2018-06-02T21:25:12.246Z,76.15
2018-06-02T21:27:41.083Z,76.16
2018-06-02T21:30:09.946Z,76.31
2018-06-02T21:32:38.776Z,76.32
2018-06-02T21:35:07.618Z,76.39
2018-06-02T21:37:36.458Z,76.53
2018-06-02T21:40:05.296Z,76.48
2018-06-02T21:42:34.132Z,76.53
2018-06-02T21:45:02.991Z,76.48
2018-06-02T21:47:31.869Z,76.30
2018-06-02T21:50:00.686Z,76.36
2018-06-02T21:52:29.525Z,76.37
2018-06-02T21:54:58.363Z,76.40
2018-06-02T21:57:27.222Z,76.44
2018-06-02T21:59:56.067Z,76.49
2018-06-02T22:02:24.933Z,76.65
2018-06-02T22:04:53.789Z,76.62
2018-06-02T22:07:22.621Z,76.72
2018-06-02T22:09:51.481Z,76.96
2018-06-02T22:12:20.327Z,77.15
2018-06-02T22:14:49.191Z,77.01
2018-06-02T22:17:18.035Z,77.20
2018-06-02T22:19:46.878Z,77.31
2018-06-02T22:22:15.684Z,77.13
2018-06-02T22:24:44.531Z,77.31
2018-06-02T22:27:13.377Z,77.11
2018-06-02T22:29:42.249Z,77.36
2018-06-02T22:32:11.104Z,77.23
2018-06-02T22:34:39.939Z,77.79
2018-06-02T22:37:08.799Z,77.61
2018-06-02T22:39:37.718Z,77.74
2018-06-02T22:42:06.571Z,77.75
2018-06-02T22:44:35.554Z,77.77
2018-06-02T22:47:04.391Z,78.05
2018-06-02T22:49:33.211Z,77.95
2018-06-02T22:52:02.070Z,77.98
2018-06-02T22:54:30.921Z,78.34
2018-06-02T22:56:59.810Z,78.37
2018-06-02T22:59:28.785Z,78.17
2018-06-02T23:01:57.934Z,78.31
2018-06-02T23:04:26.795Z,78.21
2018-06-02T23:06:55.678Z,78.25
2018-06-02T23:09:24.528Z,78.51
2018-06-02T23:11:53.372Z,78.31
2018-06-02T23:14:22.247Z,78.42
2018-06-02T23:16:51.057Z,78.28
2018-06-02T23:19:19.894Z,78.35
2018-06-02T23:21:48.715Z,78.38
2018-06-02T23:24:17.553Z,78.61
2018-06-02T23:26:46.362Z,78.48
2018-06-02T23:29:15.296Z,78.42
2018-06-02T23:31:44.086Z,78.57
2018-06-02T23:34:12.925Z,78.60
2018-06-02T23:36:41.782Z,78.77
2018-06-02T23:39:10.624Z,78.75
2018-06-02T23:41:39.451Z,79.13
2018-06-02T23:44:08.285Z,78.15
2018-06-02T23:46:37.130Z,79.08
2018-06-02T23:49:05.983Z,79.11
2018-06-02T23:51:34.823Z,79.31
2018-06-02T23:54:03.661Z,79.26
2018-06-02T23:56:32.498Z,79.26
2018-06-02T23:59:01.333Z,78.32
